Time;durP1;ratioP1;P1;durP2;ratioP2;P2;SDS_P1;SDS_P2;PMS_P1;PMS_P2;Temp;Humidity;BMP_temperature;BMP_pressure;BME280_temperature;BME280_humidity;BME280_pressure;Samples;Min_cycle;Max_cycle;Signal;HPM_P1;HPM_P2
2021/06/14 00:00:26;;;;;;;8.15;5.85;;;15.70;99.90;;;;;;5085321;28;20293;-67
2021/06/14 00:02:54;;;;;;;13.70;6.00;;;15.70;99.90;;;;;;5088933;28;20229;-67
2021/06/14 00:05:30;;;;;;;8.10;5.40;;;15.60;99.90;;;;;;5085744;28;20202;-68
2021/06/14 00:07:58;;;;;;;10.13;5.40;;;15.50;99.90;;;;;;5079161;28;20207;-67
2021/06/14 00:10:27;;;;;;;10.77;5.95;;;15.50;99.90;;;;;;5079098;28;20199;-68
2021/06/14 00:12:56;;;;;;;7.57;6.10;;;15.50;99.90;;;;;;5079138;28;20199;-67
2021/06/14 00:15:24;;;;;;;6.43;5.18;;;15.40;99.90;;;;;;5076986;28;20214;-67
2021/06/14 00:17:51;;;;;;;12.40;5.65;;;15.40;99.90;;;;;;5085690;28;20226;-67
2021/06/14 00:20:21;;;;;;;14.23;7.30;;;15.40;99.90;;;;;;5076747;28;20214;-68
2021/06/14 00:22:48;;;;;;;8.07;6.07;;;15.30;99.90;;;;;;5093163;28;20707;-68
2021/06/14 00:25:20;;;;;;;10.25;5.97;;;15.20;99.90;;;;;;5076347;28;20228;-68
2021/06/14 00:27:47;;;;;;;8.23;5.15;;;15.20;99.90;;;;;;5086827;28;20585;-68
2021/06/14 00:30:24;;;;;;;8.90;5.90;;;15.20;99.90;;;;;;5074890;28;20213;-68
2021/06/14 00:32:51;;;;;;;12.65;5.82;;;15.10;99.90;;;;;;5081108;28;20194;-66
2021/06/14 00:35:19;;;;;;;11.82;7.47;;;15.10;99.90;;;;;;5091750;28;20290;-66
2021/06/14 00:37:46;;;;;;;11.30;5.82;;;15.10;99.90;;;;;;5083810;28;20237;-67
2021/06/14 00:40:15;;;;;;;9.98;5.93;;;15.10;99.90;;;;;;5092743;28;20223;-66
2021/06/14 00:42:44;;;;;;;9.02;5.57;;;15.00;99.90;;;;;;5089155;28;20577;-67
2021/06/14 00:45:15;;;;;;;12.10;5.68;;;15.00;99.90;;;;;;5090061;28;20584;-67
2021/06/14 00:47:44;;;;;;;11.07;6.90;;;14.90;99.90;;;;;;5085130;28;20679;-66
2021/06/14 00:50:12;;;;;;;9.35;6.28;;;14.90;99.90;;;;;;5086902;28;20202;-66
2021/06/14 00:52:40;;;;;;;8.85;5.55;;;14.90;99.90;;;;;;5088947;28;20198;-68
2021/06/14 00:55:09;;;;;;;11.13;6.45;;;14.90;99.90;;;;;;5081945;28;20202;-67
2021/06/14 00:57:36;;;;;;;10.85;6.00;;;14.90;99.90;;;;;;5082771;28;20233;-67
2021/06/14 01:00:07;;;;;;;14.13;6.20;;;14.90;99.90;;;;;;5092511;28;20210;-66
2021/06/14 01:02:34;;;;;;;9.52;5.82;;;14.90;99.90;;;;;;5091369;28;20225;-67
2021/06/14 01:05:07;;;;;;;12.02;7.30;;;14.90;99.90;;;;;;5088769;28;20225;-67
2021/06/14 01:07:34;;;;;;;8.40;5.85;;;15.00;99.90;;;;;;5087359;28;21019;-67
2021/06/14 01:10:01;;;;;;;10.38;5.82;;;15.00;99.90;;;;;;5081689;28;20207;-67
2021/06/14 01:12:35;;;;;;;7.35;5.40;;;14.90;99.90;;;;;;5102016;28;20193;-67
2021/06/14 01:15:06;;;;;;;10.80;7.15;;;14.90;99.90;;;;;;5085306;28;20211;-67
2021/06/14 01:17:39;;;;;;;7.85;5.65;;;14.90;99.90;;;;;;5088362;28;20613;-67
2021/06/14 01:20:28;;;;;;;8.88;6.20;;;15.00;99.90;;;;;;5096557;28;20644;-67
2021/06/14 01:23:21;;;;;;;10.65;5.85;;;15.00;99.90;;;;;;5092557;28;20648;-67
2021/06/14 01:25:52;;;;;;;12.70;6.70;;;15.00;99.90;;;;;;5088799;28;20199;-68
2021/06/14 01:28:23;;;;;;;7.43;5.00;;;14.90;99.90;;;;;;5089126;28;20282;-67
2021/06/14 01:30:51;;;;;;;14.73;7.20;;;14.90;99.90;;;;;;5085704;28;20202;-66
2021/06/14 01:33:21;;;;;;;8.05;5.78;;;15.00;99.90;;;;;;5097897;28;20675;-67
2021/06/14 01:35:51;;;;;;;8.52;6.53;;;15.00;99.90;;;;;;5086524;28;20207;-67
2021/06/14 01:38:20;;;;;;;10.60;7.00;;;14.90;99.90;;;;;;5078564;28;20234;-67
2021/06/14 01:40:49;;;;;;;10.63;7.22;;;14.90;99.90;;;;;;5079170;28;20206;-67
2021/06/14 01:43:18;;;;;;;9.73;6.35;;;14.90;99.90;;;;;;5081986;28;20230;-67
2021/06/14 01:45:52;;;;;;;9.13;5.68;;;14.90;99.90;;;;;;5095325;28;20201;-67
2021/06/14 01:48:21;;;;;;;8.52;5.60;;;14.90;99.90;;;;;;5084318;28;20626;-67
2021/06/14 01:50:49;;;;;;;9.52;6.43;;;14.90;99.90;;;;;;5095791;28;20206;-66
2021/06/14 01:53:17;;;;;;;12.32;6.70;;;14.90;99.90;;;;;;5090205;28;20198;-66
2021/06/14 01:55:46;;;;;;;10.02;5.55;;;14.90;99.90;;;;;;5089750;28;20213;-66
2021/06/14 01:58:14;;;;;;;12.70;6.53;;;14.90;99.90;;;;;;5079439;28;20209;-67
2021/06/14 02:00:42;;;;;;;9.70;6.00;;;14.90;99.90;;;;;;5077687;28;20214;-67
2021/06/14 02:03:12;;;;;;;8.80;6.35;;;14.90;99.90;;;;;;5088236;28;20210;-66
2021/06/14 02:05:40;;;;;;;11.52;7.38;;;14.80;99.90;;;;;;5080289;28;20210;-67
2021/06/14 02:08:11;;;;;;;10.88;6.18;;;14.80;99.90;;;;;;5077101;28;20210;-67
2021/06/14 02:10:39;;;;;;;12.00;6.45;;;14.80;99.90;;;;;;5079363;28;20224;-69
2021/06/14 02:13:06;;;;;;;8.85;6.07;;;14.90;99.90;;;;;;5086110;28;20664;-67
2021/06/14 02:15:34;;;;;;;12.45;6.50;;;14.90;99.90;;;;;;5077682;28;20198;-67
2021/06/14 02:18:04;;;;;;;12.27;6.55;;;14.90;99.90;;;;;;5088278;28;20209;-66
2021/06/14 02:20:33;;;;;;;10.43;6.20;;;14.80;99.90;;;;;;5073844;28;20199;-67
2021/06/14 02:23:01;;;;;;;13.13;6.22;;;14.80;99.90;;;;;;5095779;28;20221;-67
2021/06/14 02:25:28;;;;;;;10.68;6.07;;;14.80;99.90;;;;;;5075444;28;20546;-66
2021/06/14 02:27:57;;;;;;;8.90;6.07;;;14.80;99.90;;;;;;5086210;28;20233;-67
2021/06/14 02:30:26;;;;;;;11.32;7.20;;;14.80;99.90;;;;;;5080511;28;20203;-67
2021/06/14 02:32:54;;;;;;;10.80;7.10;;;14.70;99.90;;;;;;5076828;28;20202;-67
2021/06/14 02:35:23;;;;;;;12.75;8.73;;;14.70;99.90;;;;;;5091314;28;20206;-66
2021/06/14 02:37:57;;;;;;;15.60;7.80;;;14.70;99.90;;;;;;5079131;28;20234;-66
2021/06/14 02:40:26;;;;;;;9.65;7.32;;;14.70;99.90;;;;;;5083924;28;20203;-67
2021/06/14 02:42:54;;;;;;;11.73;6.25;;;14.60;99.90;;;;;;5077594;28;20223;-66
2021/06/14 02:45:24;;;;;;;8.13;6.43;;;14.60;99.90;;;;;;5078381;28;20221;-67
2021/06/14 02:47:52;;;;;;;11.50;8.13;;;14.60;99.90;;;;;;5090080;28;20222;-66
2021/06/14 02:50:21;;;;;;;9.45;7.20;;;14.60;99.90;;;;;;5091095;28;20214;-66
2021/06/14 02:52:52;;;;;;;16.55;8.80;;;14.60;99.90;;;;;;5089290;28;20576;-67
2021/06/14 02:55:23;;;;;;;12.43;7.97;;;14.50;99.90;;;;;;5076792;28;20207;-66
2021/06/14 02:57:54;;;;;;;11.20;7.82;;;14.50;99.90;;;;;;5088862;28;20303;-66
2021/06/14 03:00:25;;;;;;;9.40;6.85;;;14.50;99.90;;;;;;5079031;28;20296;-66
2021/06/14 03:02:58;;;;;;;11.02;7.75;;;14.50;99.90;;;;;;5085607;28;20225;-67
2021/06/14 03:05:25;;;;;;;10.18;7.65;;;14.50;99.90;;;;;;5091493;28;20209;-66
2021/06/14 03:07:57;;;;;;;12.35;7.80;;;14.40;99.90;;;;;;5082960;28;20237;-66
2021/06/14 03:10:25;;;;;;;9.65;8.23;;;14.50;99.90;;;;;;5083988;28;20244;-66
2021/06/14 03:12:54;;;;;;;12.52;7.55;;;14.50;99.90;;;;;;5082977;28;20205;-67
2021/06/14 03:15:23;;;;;;;14.10;7.88;;;14.50;99.90;;;;;;5089626;28;20198;-66
2021/06/14 03:17:52;;;;;;;12.52;8.23;;;14.50;99.90;;;;;;5083000;28;20729;-66
2021/06/14 03:20:21;;;;;;;14.95;9.13;;;14.50;99.90;;;;;;5094588;28;20202;-67
2021/06/14 03:22:49;;;;;;;15.95;8.65;;;14.50;99.90;;;;;;5082919;28;20223;-67
2021/06/14 03:25:20;;;;;;;11.25;7.82;;;14.60;99.90;;;;;;5087663;28;20208;-67
2021/06/14 03:27:47;;;;;;;16.52;7.80;;;14.60;99.90;;;;;;5092073;28;20283;-66
2021/06/14 03:30:15;;;;;;;10.18;7.40;;;14.60;99.90;;;;;;5094934;28;20209;-66
2021/06/14 03:32:45;;;;;;;11.38;6.95;;;14.60;99.90;;;;;;5088099;28;20208;-65
2021/06/14 03:35:15;;;;;;;9.10;6.70;;;14.60;99.90;;;;;;5091434;28;20199;-66
2021/06/14 03:37:43;;;;;;;14.13;7.45;;;14.60;99.90;;;;;;5080796;28;20585;-66
2021/06/14 03:40:12;;;;;;;10.90;7.03;;;14.70;99.90;;;;;;5085942;28;20686;-66
2021/06/14 03:42:41;;;;;;;10.75;6.28;;;14.70;99.90;;;;;;5087969;28;20214;-67
2021/06/14 03:45:11;;;;;;;10.10;6.75;;;14.70;99.90;;;;;;5080818;28;20572;-67
2021/06/14 03:47:39;;;;;;;11.57;7.28;;;14.70;99.90;;;;;;5091655;28;20217;-66
2021/06/14 03:50:08;;;;;;;9.23;6.40;;;14.80;99.90;;;;;;5083866;28;20216;-67
2021/06/14 03:52:37;;;;;;;9.40;6.15;;;14.80;99.90;;;;;;5091865;28;20202;-67
2021/06/14 03:55:05;;;;;;;13.90;7.60;;;14.90;99.90;;;;;;5087758;28;20202;-66
2021/06/14 03:57:32;;;;;;;10.13;7.53;;;15.00;99.90;;;;;;5088039;28;20221;-67
2021/06/14 04:00:01;;;;;;;11.60;6.85;;;14.90;99.90;;;;;;5096577;28;20584;-67
2021/06/14 04:02:28;;;;;;;13.02;6.38;;;15.00;99.90;;;;;;5096927;28;20253;-66
2021/06/14 04:04:56;;;;;;;11.90;7.50;;;15.20;99.90;;;;;;5094941;28;20206;-66
2021/06/14 04:07:23;;;;;;;8.30;6.45;;;15.90;99.90;;;;;;5089343;28;20252;-66
2021/06/14 04:09:50;;;;;;;12.50;7.60;;;17.00;99.90;;;;;;5088446;28;20698;-67
2021/06/14 04:12:18;;;;;;;13.40;6.90;;;18.00;99.90;;;;;;5084490;28;20199;-67
2021/06/14 04:14:45;;;;;;;14.53;8.03;;;18.80;99.90;;;;;;5088185;28;20440;-67
2021/06/14 04:17:14;;;;;;;9.07;6.70;;;19.60;99.90;;;;;;5090730;28;20553;-66
2021/06/14 04:19:41;;;;;;;11.60;7.67;;;20.20;98.90;;;;;;5090266;28;20456;-66
2021/06/14 04:22:08;;;;;;;8.57;6.43;;;20.80;97.40;;;;;;5090582;28;20451;-66
2021/06/14 04:24:35;;;;;;;14.10;6.63;;;21.20;95.90;;;;;;5090168;28;20866;-67
2021/06/14 04:27:02;;;;;;;10.03;6.90;;;21.80;94.30;;;;;;5093117;28;20473;-67
2021/06/14 04:29:29;;;;;;;11.70;7.37;;;22.00;93.30;;;;;;5088905;28;20446;-66
2021/06/14 04:31:58;;;;;;;11.27;6.40;;;22.60;92.40;;;;;;5086224;28;20860;-66
2021/06/14 04:34:27;;;;;;;12.20;7.57;;;22.90;91.50;;;;;;5089871;28;20467;-66
2021/06/14 04:36:54;;;;;;;11.87;7.60;;;23.20;90.50;;;;;;5084758;28;20472;-66
2021/06/14 04:39:21;;;;;;;7.47;5.70;;;23.30;90.20;;;;;;5087282;28;20424;-68
2021/06/14 04:41:48;;;;;;;8.67;6.87;;;23.60;90.00;;;;;;5095366;28;20441;-69
2021/06/14 04:44:16;;;;;;;8.43;6.23;;;24.10;87.90;;;;;;5083964;28;20484;-69
2021/06/14 04:46:44;;;;;;;8.70;6.10;;;24.50;86.90;;;;;;5091513;28;20491;-68
2021/06/14 04:49:11;;;;;;;10.23;7.67;;;24.60;86.00;;;;;;5091405;28;20539;-68
2021/06/14 04:51:40;;;;;;;11.00;7.10;;;24.40;85.20;;;;;;5092034;28;20453;-68
2021/06/14 04:54:07;;;;;;;24.63;8.27;;;24.60;84.70;;;;;;5087701;28;20440;-69
2021/06/14 04:56:34;;;;;;;13.07;6.53;;;24.80;84.20;;;;;;5082906;28;20469;-69
2021/06/14 04:59:01;;;;;;;12.57;6.83;;;25.20;82.80;;;;;;5077541;28;20441;-68
2021/06/14 05:01:28;;;;;;;11.80;6.53;;;25.50;80.40;;;;;;5083369;28;20820;-68
2021/06/14 05:03:55;;;;;;;10.87;6.67;;;25.30;80.00;;;;;;5095460;28;20484;-68
2021/06/14 05:06:23;;;;;;;8.33;5.30;;;25.10;80.50;;;;;;5084785;28;20473;-66
2021/06/14 05:08:52;;;;;;;8.53;5.80;;;25.50;80.20;;;;;;5086025;28;20452;-68
2021/06/14 05:11:19;;;;;;;12.47;7.23;;;25.80;79.20;;;;;;5084876;28;20460;-68
2021/06/14 05:13:46;;;;;;;11.20;6.70;;;26.00;77.70;;;;;;5087103;28;20445;-68
2021/06/14 05:16:13;;;;;;;14.20;7.87;;;25.90;77.00;;;;;;5093473;28;20462;-68
2021/06/14 05:18:41;;;;;;;10.90;6.40;;;26.10;76.60;;;;;;5089269;28;20474;-69
2021/06/14 05:21:08;;;;;;;7.33;5.90;;;26.40;76.40;;;;;;5083275;28;20455;-68
2021/06/14 05:23:35;;;;;;;19.40;7.53;;;26.90;75.70;;;;;;5082461;28;20511;-68
2021/06/14 05:26:04;;;;;;;8.73;6.57;;;27.10;73.40;;;;;;5090094;28;20943;-68
2021/06/14 05:28:31;;;;;;;14.37;6.87;;;27.00;72.80;;;;;;5086142;28;20449;-67
2021/06/14 05:30:58;;;;;;;16.53;7.77;;;26.80;74.40;;;;;;5080333;28;20535;-69
2021/06/14 05:33:25;;;;;;;16.00;11.80;;;27.10;73.20;;;;;;5082874;28;20445;-67
2021/06/14 05:35:53;;;;;;;9.83;8.83;;;27.00;72.40;;;;;;5093930;28;20544;-69
2021/06/14 05:38:21;;;;;;;13.73;7.80;;;27.20;73.20;;;;;;5094742;28;20429;-68
2021/06/14 05:40:48;;;;;;;11.70;8.30;;;27.20;71.80;;;;;;5093772;28;20437;-69
2021/06/14 05:43:18;;;;;;;9.97;7.20;;;27.30;71.30;;;;;;5079820;28;20495;-68
2021/06/14 05:45:45;;;;;;;8.00;6.77;;;27.70;72.50;;;;;;5082910;28;20444;-69
2021/06/14 05:48:13;;;;;;;12.03;6.20;;;27.70;69.70;;;;;;5078021;28;20449;-69
2021/06/14 05:50:41;;;;;;;8.70;6.37;;;27.40;71.40;;;;;;5084375;28;20452;-69
2021/06/14 05:53:08;;;;;;;18.83;5.70;;;27.30;71.90;;;;;;5089837;28;20945;-68
2021/06/14 05:55:36;;;;;;;11.40;6.90;;;26.90;71.70;;;;;;5081002;28;20512;-69
2021/06/14 05:58:03;;;;;;;11.37;6.97;;;26.90;72.50;;;;;;5076000;28;20991;-68
2021/06/14 06:00:38;;;;;;;11.50;6.90;;;27.70;72.20;;;;;;5081508;28;20489;-69
2021/06/14 06:03:05;;;;;;;13.00;6.30;;;28.40;70.30;;;;;;5086958;28;20440;-67
2021/06/14 06:05:32;;;;;;;9.73;5.50;;;28.90;68.50;;;;;;5087343;28;20445;-69
2021/06/14 06:08:00;;;;;;;9.20;6.27;;;29.00;67.40;;;;;;5083980;28;20444;-70
2021/06/14 06:10:27;;;;;;;9.83;5.70;;;29.20;67.60;;;;;;5081243;28;20476;-71
2021/06/14 06:12:54;;;;;;;9.10;6.33;;;29.00;67.70;;;;;;5084863;28;20491;-70
2021/06/14 06:15:22;;;;;;;14.93;7.50;;;28.90;68.30;;;;;;5084078;28;20441;-69
2021/06/14 06:17:50;;;;;;;10.70;6.17;;;29.20;67.40;;;;;;5087385;28;20464;-69
2021/06/14 06:20:18;;;;;;;7.77;4.73;;;28.90;67.80;;;;;;5076537;28;20826;-70
2021/06/14 06:22:46;;;;;;;8.20;5.40;;;29.60;67.50;;;;;;5093453;28;20496;-69
2021/06/14 06:25:17;;;;;;;8.97;5.73;;;30.10;66.00;;;;;;5083496;28;20484;-69
2021/06/14 06:27:46;;;;;;;9.33;5.83;;;29.90;66.10;;;;;;5089511;28;20468;-69
2021/06/14 06:30:18;;;;;;;5.97;5.03;;;29.50;65.20;;;;;;5094193;28;20963;-70
2021/06/14 06:32:45;;;;;;;14.07;6.23;;;29.10;66.30;;;;;;5087836;28;20446;-70
2021/06/14 06:35:15;;;;;;;6.50;4.70;;;29.60;65.60;;;;;;5090898;28;20566;-70
2021/06/14 06:37:42;;;;;;;11.93;6.47;;;29.90;65.00;;;;;;5086825;28;20468;-70
2021/06/14 06:40:10;;;;;;;10.80;6.27;;;30.00;64.20;;;;;;5087562;28;20447;-70
2021/06/14 06:42:38;;;;;;;13.20;6.17;;;29.60;64.60;;;;;;5074866;28;20481;-70
2021/06/14 06:45:08;;;;;;;7.17;5.10;;;29.40;66.20;;;;;;5082320;28;20479;-69
2021/06/14 06:47:35;;;;;;;11.70;5.90;;;29.20;66.80;;;;;;5082525;28;20465;-69
2021/06/14 06:50:04;;;;;;;10.53;4.93;;;29.80;66.50;;;;;;5087575;28;20521;-68
2021/06/14 06:52:32;;;;;;;12.57;5.27;;;30.20;65.20;;;;;;5087394;28;20451;-68
2021/06/14 06:55:00;;;;;;;7.57;5.23;;;30.60;63.90;;;;;;5091149;28;20436;-70
2021/06/14 06:57:28;;;;;;;7.07;4.30;;;30.90;63.30;;;;;;5095469;28;20472;-69
2021/06/14 06:59:55;;;;;;;9.40;4.37;;;31.00;62.90;;;;;;5080983;28;20452;-70
2021/06/14 07:02:22;;;;;;;8.07;5.43;;;31.40;62.30;;;;;;5084131;28;20432;-68
2021/06/14 07:04:49;;;;;;;9.93;5.93;;;31.60;61.30;;;;;;5077800;28;20515;-70
2021/06/14 07:07:16;;;;;;;7.70;4.97;;;31.40;60.40;;;;;;5082876;28;20476;-70
2021/06/14 07:09:45;;;;;;;5.70;4.40;;;31.90;59.80;;;;;;5090555;28;20469;-70
2021/06/14 07:12:12;;;;;;;7.90;4.67;;;31.90;58.90;;;;;;5084916;28;20452;-70
2021/06/14 07:14:39;;;;;;;5.40;4.60;;;32.00;58.10;;;;;;5080955;28;20443;-70
2021/06/14 07:17:08;;;;;;;8.97;4.63;;;32.00;58.40;;;;;;5083333;28;20500;-70
2021/06/14 07:19:35;;;;;;;7.13;3.77;;;32.20;58.00;;;;;;5079227;28;20528;-70
2021/06/14 07:22:03;;;;;;;5.40;3.90;;;32.50;57.30;;;;;;5097847;28;20443;-70
2021/06/14 07:24:31;;;;;;;10.70;5.03;;;32.60;56.60;;;;;;5077694;28;20894;-70
2021/06/14 07:26:59;;;;;;;6.33;4.77;;;32.80;56.80;;;;;;5081722;28;20856;-70
2021/06/14 07:29:28;;;;;;;8.60;4.50;;;32.50;55.60;;;;;;5087056;28;20819;-70
2021/06/14 07:31:58;;;;;;;8.90;5.20;;;32.60;56.50;;;;;;5077139;28;20444;-70
2021/06/14 07:34:25;;;;;;;8.13;4.23;;;32.70;56.10;;;;;;5083067;28;20899;-70
2021/06/14 07:36:56;;;;;;;5.33;4.00;;;32.80;56.10;;;;;;5091175;28;20779;-70
2021/06/14 07:39:24;;;;;;;9.47;4.00;;;32.80;55.20;;;;;;5087153;28;20983;-71
2021/06/14 07:41:51;;;;;;;9.33;4.30;;;32.70;55.20;;;;;;5082216;28;20459;-69
2021/06/14 07:44:20;;;;;;;7.27;4.67;;;32.80;54.60;;;;;;5081476;28;20487;-71
2021/06/14 07:46:47;;;;;;;10.07;4.13;;;33.00;53.20;;;;;;5084769;28;20469;-71
2021/06/14 07:49:14;;;;;;;8.00;4.87;;;32.60;54.20;;;;;;5091340;28;20755;-71
2021/06/14 07:51:41;;;;;;;10.07;3.93;;;32.70;54.30;;;;;;5088779;28;20447;-70
2021/06/14 07:54:09;;;;;;;9.43;5.43;;;33.00;54.10;;;;;;5089661;28;20443;-70
2021/06/14 07:56:38;;;;;;;5.80;4.47;;;33.20;53.50;;;;;;5083773;28;20974;-70
2021/06/14 07:59:05;;;;;;;4.70;3.63;;;33.80;53.20;;;;;;5088453;28;20464;-71
2021/06/14 08:01:34;;;;;;;17.47;4.70;;;33.90;52.50;;;;;;5074963;28;20465;-70
2021/06/14 08:04:01;;;;;;;7.73;4.67;;;33.90;52.70;;;;;;5098158;28;20491;-71
2021/06/14 08:06:28;;;;;;;8.23;5.80;;;34.00;51.80;;;;;;5086760;28;20472;-70
2021/06/14 08:08:56;;;;;;;5.50;4.47;;;33.50;51.10;;;;;;5088127;28;20440;-70
2021/06/14 08:11:24;;;;;;;7.23;4.43;;;33.60;51.00;;;;;;5083058;28;20448;-70
2021/06/14 08:13:51;;;;;;;5.00;4.07;;;33.60;51.80;;;;;;5089961;28;20440;-69
2021/06/14 08:16:18;;;;;;;11.17;4.37;;;33.00;51.30;;;;;;5091507;28;20504;-70
2021/06/14 08:18:59;;;;;;;7.57;4.40;;;33.00;51.60;;;;;;5090423;28;20449;-70
2021/06/14 08:21:41;;;;;;;6.80;4.13;;;32.90;51.70;;;;;;5098610;28;20522;-71
2021/06/14 08:26:56;;;;;;;10.23;4.07;;;32.40;53.60;;;;;;5086471;28;20877;-70
2021/06/14 08:29:23;;;;;;;6.00;3.90;;;32.90;53.10;;;;;;5088321;28;20927;-70
2021/06/14 08:31:53;;;;;;;8.93;4.73;;;33.10;52.20;;;;;;5093031;28;20452;-70
2021/06/14 08:34:21;;;;;;;62.60;24.70;;;33.40;52.70;;;;;;5087127;28;20436;-69
2021/06/14 08:36:48;;;;;;;7.73;5.20;;;33.40;51.20;;;;;;5094878;28;20488;-69
2021/06/14 08:39:15;;;;;;;5.20;4.13;;;33.70;52.10;;;;;;5083606;28;20433;-70
2021/06/14 08:41:45;;;;;;;8.50;5.33;;;33.40;50.80;;;;;;5092536;28;20502;-69
2021/06/14 08:44:13;;;;;;;7.07;4.20;;;33.30;50.60;;;;;;5102824;28;20483;-70
2021/06/14 08:46:40;;;;;;;8.80;4.77;;;33.20;51.80;;;;;;5091536;28;20482;-69
2021/06/14 08:49:08;;;;;;;8.77;4.37;;;33.30;51.60;;;;;;5087660;28;21067;-69
2021/06/14 08:51:37;;;;;;;7.67;4.77;;;33.30;52.20;;;;;;5081628;28;20454;-71
2021/06/14 08:54:07;;;;;;;7.63;5.00;;;33.40;51.70;;;;;;5093166;28;20451;-70
2021/06/14 08:56:35;;;;;;;5.07;3.70;;;34.00;51.40;;;;;;5078217;28;20991;-69
2021/06/14 08:59:03;;;;;;;6.80;4.50;;;34.00;49.70;;;;;;5083885;28;20463;-69
2021/06/14 09:01:30;;;;;;;9.20;3.90;;;33.90;48.60;;;;;;5086927;28;20545;-70
2021/06/14 09:03:58;;;;;;;11.77;4.93;;;32.80;48.40;;;;;;5099975;28;20862;-69
2021/06/14 09:06:25;;;;;;;5.93;3.90;;;33.50;48.60;;;;;;5081346;28;20467;-70
2021/06/14 09:09:02;;;;;;;6.63;4.23;;;33.80;48.80;;;;;;5083015;28;20451;-72
2021/06/14 09:11:31;;;;;;;4.90;4.20;;;33.80;49.40;;;;;;5081876;28;20429;-71
2021/06/14 09:14:00;;;;;;;9.27;4.43;;;34.30;47.80;;;;;;5085681;28;20822;-71
2021/06/14 09:16:31;;;;;;;6.10;4.13;;;33.80;48.00;;;;;;5077174;28;20457;-68
2021/06/14 09:18:59;;;;;;;8.80;4.43;;;33.70;49.00;;;;;;5090591;28;20451;-70
2021/06/14 09:21:28;;;;;;;7.37;4.00;;;33.70;49.30;;;;;;5090897;28;20467;-70
2021/06/14 09:23:57;;;;;;;5.90;4.67;;;33.80;49.80;;;;;;5084906;28;20449;-71
2021/06/14 09:26:30;;;;;;;7.70;4.20;;;33.60;49.10;;;;;;5088612;28;20472;-69
2021/06/14 09:29:00;;;;;;;7.80;4.10;;;32.50;50.90;;;;;;5091664;28;20471;-68
2021/06/14 09:31:31;;;;;;;6.73;4.13;;;32.30;51.60;;;;;;5081783;28;20884;-70
2021/06/14 09:33:58;;;;;;;11.03;5.13;;;31.70;53.10;;;;;;5093316;28;20453;-70
2021/06/14 09:36:25;;;;;;;8.40;3.90;;;31.30;52.70;;;;;;5079316;28;20482;-70
2021/06/14 09:38:54;;;;;;;6.93;3.60;;;31.40;51.70;;;;;;5084208;28;20436;-70
2021/06/14 09:41:21;;;;;;;6.60;3.67;;;31.60;51.80;;;;;;5083730;28;20445;-70
2021/06/14 09:43:52;;;;;;;12.03;4.83;;;32.10;51.00;;;;;;5098804;28;20467;-70
2021/06/14 09:46:22;;;;;;;5.10;4.60;;;32.00;51.50;;;;;;5084141;28;20504;-70
2021/06/14 09:48:50;;;;;;;6.67;4.70;;;32.10;51.80;;;;;;5078405;28;20441;-70
2021/06/14 09:51:18;;;;;;;7.83;4.03;;;31.10;53.20;;;;;;5080156;28;20452;-70
2021/06/14 09:53:48;;;;;;;7.53;4.30;;;30.90;53.90;;;;;;5081172;28;20447;-69
2021/06/14 09:56:18;;;;;;;8.13;4.43;;;31.00;52.70;;;;;;5084555;28;20476;-70
2021/06/14 09:58:47;;;;;;;5.93;3.90;;;31.40;51.90;;;;;;5088658;28;20530;-68
2021/06/14 10:01:23;;;;;;;4.67;3.03;;;32.00;52.20;;;;;;5084960;28;20448;-69
2021/06/14 10:03:50;;;;;;;7.17;4.53;;;32.40;51.00;;;;;;5092127;28;20547;-70
2021/06/14 10:06:29;;;;;;;4.93;3.37;;;32.40;51.20;;;;;;5085639;28;20493;-70
2021/06/14 10:08:57;;;;;;;7.80;3.60;;;32.30;50.40;;;;;;5083295;28;20436;-70
2021/06/14 10:11:24;;;;;;;5.30;3.90;;;31.20;50.60;;;;;;5082397;28;20956;-72
2021/06/14 10:13:52;;;;;;;5.40;3.87;;;31.50;51.90;;;;;;5088904;28;20444;-71
2021/06/14 10:16:25;;;;;;;4.50;3.67;;;31.50;52.20;;;;;;5089534;28;20564;-69
2021/06/14 10:18:57;;;;;;;4.37;3.40;;;31.20;52.00;;;;;;5081822;28;20539;-71
2021/06/14 10:21:29;;;;;;;5.27;3.80;;;31.20;52.00;;;;;;5083712;28;20452;-69
2021/06/14 10:23:58;;;;;;;6.83;3.53;;;31.20;52.50;;;;;;5082871;28;20507;-70
2021/06/14 10:26:28;;;;;;;4.60;3.57;;;31.00;51.70;;;;;;5086270;28;20554;-70
2021/06/14 10:28:55;;;;;;;5.93;4.60;;;31.00;53.40;;;;;;5088041;28;20464;-70
2021/06/14 10:31:25;;;;;;;5.73;4.10;;;31.00;53.40;;;;;;5090753;28;20505;-69
2021/06/14 10:33:55;;;;;;;6.97;4.50;;;31.10;53.20;;;;;;5086076;28;20445;-69
2021/06/14 10:36:23;;;;;;;6.77;3.70;;;31.10;53.00;;;;;;5078164;28;20475;-70
2021/06/14 10:38:52;;;;;;;5.40;4.30;;;30.90;53.30;;;;;;5084116;28;20450;-71
2021/06/14 10:41:23;;;;;;;4.77;3.50;;;30.30;54.20;;;;;;5090055;28;20457;-71
2021/06/14 10:43:53;;;;;;;7.47;4.27;;;29.80;55.60;;;;;;5091807;28;20903;-69
2021/06/14 10:46:24;;;;;;;6.20;4.10;;;29.10;55.60;;;;;;5079516;28;20477;-71
2021/06/14 10:48:56;;;;;;;6.80;4.30;;;28.60;56.50;;;;;;5078657;28;20446;-70
2021/06/14 10:51:24;;;;;;;4.73;3.03;;;28.00;58.00;;;;;;5076954;28;21021;-70
2021/06/14 10:53:51;;;;;;;7.23;4.37;;;28.30;59.50;;;;;;5083432;28;20972;-70
2021/06/14 10:56:20;;;;;;;5.30;3.53;;;28.40;58.10;;;;;;5080336;28;20476;-70
2021/06/14 10:58:58;;;;;;;5.70;3.70;;;28.40;58.10;;;;;;5085432;28;20450;-70
2021/06/14 11:01:35;;;;;;;6.20;4.10;;;28.30;58.50;;;;;;5084342;28;20457;-70
2021/06/14 11:04:06;;;;;;;7.07;3.93;;;28.10;59.00;;;;;;5095675;28;20452;-70
2021/06/14 11:06:35;;;;;;;5.83;3.80;;;28.00;58.80;;;;;;5083347;28;20521;-69
2021/06/14 11:09:09;;;;;;;7.03;4.13;;;27.90;59.20;;;;;;5085464;28;20468;-69
2021/06/14 11:11:49;;;;;;;9.33;4.57;;;27.90;59.50;;;;;;5089721;28;20523;-70
2021/06/14 11:14:29;;;;;;;6.20;4.00;;;27.80;59.20;;;;;;5088982;28;20447;-70
2021/06/14 11:17:00;;;;;;;5.47;3.73;;;28.10;59.80;;;;;;5083969;28;20480;-71
2021/06/14 11:19:35;;;;;;;9.63;3.80;;;28.30;59.50;;;;;;5083226;28;20451;-72
2021/06/14 11:22:04;;;;;;;5.60;2.90;;;28.40;58.50;;;;;;5081842;28;20499;-70
2021/06/14 11:24:38;;;;;;;6.13;3.60;;;28.40;58.50;;;;;;5089147;28;20513;-71
2021/06/14 11:27:07;;;;;;;12.27;4.13;;;28.40;58.20;;;;;;5083502;28;20472;-70
2021/06/14 11:29:43;;;;;;;4.57;3.13;;;28.20;57.90;;;;;;5086742;28;20460;-70
2021/06/14 11:32:18;;;;;;;4.30;3.50;;;28.30;59.30;;;;;;5084295;28;20448;-70
2021/06/14 11:34:47;;;;;;;10.67;4.37;;;28.20;58.90;;;;;;5095573;28;20936;-70
2021/06/14 11:37:15;;;;;;;3.90;3.17;;;28.00;58.60;;;;;;5084470;28;20831;-70
2021/06/14 11:39:43;;;;;;;7.43;4.20;;;28.10;59.10;;;;;;5081370;28;20873;-70
2021/06/14 11:42:14;;;;;;;7.23;4.20;;;28.10;59.40;;;;;;5080659;28;20440;-70
2021/06/14 11:44:52;;;;;;;4.63;3.50;;;28.20;58.30;;;;;;5096042;28;20460;-71
2021/06/14 11:47:25;;;;;;;5.57;3.63;;;27.90;58.40;;;;;;5084400;28;20514;-71
2021/06/14 11:49:54;;;;;;;7.30;3.77;;;27.90;58.70;;;;;;5088561;28;20978;-71
2021/06/14 11:52:25;;;;;;;8.43;3.67;;;27.90;58.80;;;;;;5091335;28;20900;-70
2021/06/14 11:54:55;;;;;;;5.00;3.40;;;28.10;60.00;;;;;;5088152;28;20994;-70
2021/06/14 11:57:28;;;;;;;3.83;3.00;;;28.10;58.80;;;;;;5083532;28;21019;-69
2021/06/14 11:59:56;;;;;;;5.70;5.13;;;28.20;59.10;;;;;;5095532;28;20451;-71
2021/06/14 12:02:26;;;;;;;5.97;2.90;;;28.00;59.40;;;;;;5098396;28;20470;-70
2021/06/14 12:04:55;;;;;;;5.23;3.20;;;27.90;59.20;;;;;;5094861;28;20475;-71
2021/06/14 12:07:30;;;;;;;4.70;3.87;;;27.90;59.60;;;;;;5078809;28;20473;-70
2021/06/14 12:10:06;;;;;;;7.70;3.10;;;28.00;59.70;;;;;;5082685;28;20466;-70
2021/06/14 12:12:34;;;;;;;8.33;3.77;;;28.10;59.40;;;;;;5094934;28;20443;-70
2021/06/14 12:15:01;;;;;;;4.03;3.07;;;28.10;59.40;;;;;;5092712;28;20448;-71
2021/06/14 12:17:31;;;;;;;5.20;3.00;;;28.00;59.50;;;;;;5080287;28;20560;-68
2021/06/14 12:19:59;;;;;;;5.53;3.27;;;28.00;59.30;;;;;;5084117;28;20444;-70
2021/06/14 12:22:28;;;;;;;5.77;3.40;;;28.20;59.50;;;;;;5083005;28;20453;-70
2021/06/14 12:25:02;;;;;;;7.13;3.70;;;28.30;59.00;;;;;;5079938;28;20463;-70
2021/06/14 12:27:29;;;;;;;6.40;3.30;;;28.50;59.00;;;;;;5093845;28;20966;-70
2021/06/14 12:29:58;;;;;;;4.63;3.20;;;28.50;58.10;;;;;;5096350;28;20440;-70
2021/06/14 12:32:26;;;;;;;5.13;3.37;;;28.40;58.00;;;;;;5094732;28;20451;-70
2021/06/14 12:34:59;;;;;;;3.90;3.10;;;28.10;58.00;;;;;;5086932;28;20460;-69
2021/06/14 12:37:27;;;;;;;6.80;3.37;;;28.00;58.50;;;;;;5092970;28;20468;-71
2021/06/14 12:39:59;;;;;;;7.60;3.50;;;27.90;58.70;;;;;;5090043;28;20484;-70
2021/06/14 12:42:28;;;;;;;3.10;2.20;;;27.90;58.80;;;;;;5097108;28;20451;-69
2021/06/14 12:44:57;;;;;;;3.77;2.53;;;27.90;58.60;;;;;;5095345;28;20497;-70
2021/06/14 12:47:24;;;;;;;4.80;3.30;;;27.90;59.30;;;;;;5091769;28;20465;-71
2021/06/14 12:49:55;;;;;;;4.70;2.70;;;27.80;59.30;;;;;;5100075;28;20447;-70
2021/06/14 12:52:23;;;;;;;4.40;2.93;;;27.70;59.50;;;;;;5089521;28;20445;-71
2021/06/14 12:54:52;;;;;;;11.10;4.20;;;27.60;59.70;;;;;;5087082;28;20812;-71